Metabetchouan, Canada
Current Conditions -  °F | °C
As of 3:00 AM on Friday 24 Oct 2014 (Local Time) from CYRJ Reporting Station
Few Clouds Few Clouds  
Wind Chill: 26°   Ceiling: Unl
Heat Index: 32°   Visibility: 25mi
Dew Point: 28°   Wind: 6mph
Humidity: 87%   Direction: 280°W
Pressure: 30.02"   Gusts: NA
Location:  48.43°N, 71.87°W
Report Text: CYRJ 240700Z 28005KT 25SM FEW220 00/M02 A3002 RMK CI2 SLP173
Loading
Personal Weather Stations






























Interactive Weather Map
Tropical Storm Tracking
New forecast layout! Learn more

10-Day Weather Forecast

Advertisements
Track Severe Weather on mobile